Aliceville, Alabama
Current Conditions -  °F | °C
As of 9:53 AM on Saturday 22 Nov 2014 (Local Time) from KTCL Reporting Station
Clear Clear  
Wind Chill: 59°   Ceiling: Unl
Heat Index: 59°   Visibility: 10mi
Dew Point: 39°   Wind: 7mph
Humidity: 48%   Direction: 140°SE
Pressure: 30.35"   Gusts: NA
Location:  33.13°N, 88.15°W
Report Text: KTCL 221553Z 14006KT 10SM CLR 15/04 A3035 RMK AO2 SLP275 T01500039
Loading
Personal Weather Stations






























Interactive Weather Map New forecast layout! Learn more

10-Day Weather Forecast

Advertisements
Track Severe Weather on mobile